Time,TemperatureF,DewpointF,PressureIn,WindDirection,WindDirectionDegrees,WindSpeedMPH,WindSpeedGustMPH,Humidity,HourlyPrecipIn,Conditions,Clouds,dailyrainin,SoftwareType,DateUTC
2013-05-30 00:01:00,60.0,52.0,-100.00,NE,35,12.0,14.0,74,-99.99,,,0.00,,2013-05-30 06:01:00,
2013-05-30 00:12:00,59.0,53.0,-100.00,NE,50,11.0,12.0,80,-99.99,,,0.00,,2013-05-30 06:12:00,
2013-05-30 00:22:00,59.0,53.0,-100.00,NE,50,11.0,12.0,80,-99.99,,,0.00,,2013-05-30 06:22:00,
2013-05-30 00:32:00,58.0,53.0,-100.00,NNE,30,16.0,19.0,85,-99.99,,,0.00,,2013-05-30 06:32:00,
2013-05-30 00:42:00,58.0,53.0,-100.00,NNE,30,16.0,19.0,85,-99.99,,,0.00,,2013-05-30 06:42:00,
2013-05-30 00:52:00,58.0,53.0,-100.00,NE,40,21.0,24.0,84,-99.99,,,0.00,,2013-05-30 06:52:00,
2013-05-30 01:01:00,58.0,53.0,-100.00,NE,40,21.0,24.0,84,-99.99,,,0.00,,2013-05-30 07:01:00,
2013-05-30 01:12:00,57.0,54.0,-100.00,ENE,60,13.0,14.0,92,-99.99,,,0.00,,2013-05-30 07:12:00,
2013-05-30 01:22:00,57.0,54.0,-100.00,ENE,60,13.0,14.0,92,-99.99,,,0.00,,2013-05-30 07:22:00,
2013-05-30 01:32:00,57.0,54.0,-100.00,NE,40,9.0,10.0,92,-99.99,,,0.00,,2013-05-30 07:32:00,
2013-05-30 01:42:00,57.0,54.0,-100.00,NE,40,9.0,10.0,92,-99.99,,,0.00,,2013-05-30 07:42:00,
2013-05-30 01:52:00,56.0,54.0,-100.00,NE,40,11.0,12.0,92,-99.99,,,0.00,,2013-05-30 07:52:00,
2013-05-30 02:02:00,56.0,54.0,-100.00,NE,40,11.0,12.0,92,-99.99,,,0.00,,2013-05-30 08:02:00,
2013-05-30 02:11:00,56.0,54.0,-100.00,NNE,20,9.0,11.0,92,-99.99,,,0.00,,2013-05-30 08:11:00,
2013-05-30 02:22:00,56.0,54.0,-100.00,NNE,20,9.0,11.0,92,-99.99,,,0.00,,2013-05-30 08:22:00,
2013-05-30 02:32:00,56.0,54.0,-100.00,NNE,15,7.0,8.0,93,-99.99,,,0.00,,2013-05-30 08:32:00,
2013-05-30 02:42:00,56.0,54.0,-100.00,NNE,15,7.0,8.0,93,-99.99,,,0.00,,2013-05-30 08:42:00,
2013-05-30 02:52:00,57.0,55.0,-100.00,NNE,30,8.0,9.0,93,-99.99,,,0.00,,2013-05-30 08:52:00,
2013-05-30 03:01:00,57.0,55.0,-100.00,NNE,30,8.0,9.0,93,-99.99,,,0.00,,2013-05-30 09:01:00,
2013-05-30 03:11:00,57.0,55.0,-100.00,NE,35,14.0,16.0,93,-99.99,,,0.00,,2013-05-30 09:11:00,
2013-05-30 03:21:00,57.0,55.0,-100.00,NE,35,14.0,16.0,93,-99.99,,,0.00,,2013-05-30 09:21:00,
2013-05-30 03:33:00,57.0,55.0,-100.00,NNE,25,12.0,14.0,93,-99.99,,,0.00,,2013-05-30 09:33:00,
2013-05-30 03:42:00,57.0,55.0,-100.00,NNE,25,12.0,14.0,93,-99.99,,,0.00,,2013-05-30 09:42:00,
2013-05-30 03:53:00,57.0,55.0,-100.00,NNE,25,14.0,15.0,93,-99.99,,,0.00,,2013-05-30 09:53:00,
2013-05-30 04:03:00,57.0,55.0,-100.00,NNE,25,14.0,15.0,93,-99.99,,,0.00,,2013-05-30 10:03:00,
2013-05-30 04:13:00,56.0,54.0,-100.00,NE,35,14.0,16.0,93,-99.99,,,0.00,,2013-05-30 10:13:00,
2013-05-30 04:23:00,56.0,54.0,-100.00,NE,35,14.0,16.0,93,-99.99,,,0.00,,2013-05-30 10:23:00,
2013-05-30 04:32:00,56.0,54.0,-100.00,NNE,20,10.0,14.0,93,-99.99,,,0.00,,2013-05-30 10:32:00,
2013-05-30 04:42:00,56.0,54.0,-100.00,NNE,20,10.0,14.0,93,-99.99,,,0.00,,2013-05-30 10:42:00,
2013-05-30 04:52:00,56.0,54.0,-100.00,NNE,25,14.0,17.0,93,-99.99,,,0.00,,2013-05-30 10:52:00,
2013-05-30 05:03:00,56.0,54.0,-100.00,NNE,25,14.0,17.0,93,-99.99,,,0.00,,2013-05-30 11:03:00,
2013-05-30 05:12:00,56.0,54.0,-100.00,NNE,15,16.0,20.0,93,-99.99,,,0.00,,2013-05-30 11:12:00,
2013-05-30 05:22:00,56.0,54.0,-100.00,NNE,15,16.0,20.0,93,-99.99,,,0.00,,2013-05-30 11:22:00,
2013-05-30 05:32:00,55.0,53.0,-100.00,North,10,15.0,17.0,93,-99.99,,,0.00,,2013-05-30 11:32:00,
2013-05-30 05:42:00,55.0,53.0,-100.00,North,10,15.0,17.0,93,-99.99,,,0.00,,2013-05-30 11:42:00,
2013-05-30 05:52:00,55.0,53.0,-100.00,North,5,17.0,22.0,93,-99.99,,,-99.99,,2013-05-30 11:52:00,
2013-05-30 06:01:00,55.0,53.0,-100.00,North,5,17.0,22.0,93,-99.99,,,-99.99,,2013-05-30 12:01:00,
2013-05-30 06:11:00,54.0,53.0,-100.00,North,5,17.0,19.0,94,-99.99,,,-99.99,,2013-05-30 12:11:00,
2013-05-30 06:22:00,54.0,53.0,-100.00,North,5,17.0,19.0,94,-99.99,,,-99.99,,2013-05-30 12:22:00,
2013-05-30 06:32:00,54.0,53.0,-100.00,North,10,15.0,18.0,95,-99.99,,,-99.99,,2013-05-30 12:32:00,
2013-05-30 06:42:00,54.0,53.0,-100.00,North,10,15.0,18.0,95,-99.99,,,-99.99,,2013-05-30 12:42:00,
2013-05-30 06:52:00,54.0,53.0,-100.00,North,355,20.0,24.0,95,-99.99,,,-99.99,,2013-05-30 12:52:00,
2013-05-30 07:01:00,54.0,53.0,-100.00,North,355,20.0,24.0,95,-99.99,,,-99.99,,2013-05-30 13:01:00,
2013-05-30 07:11:00,54.0,52.0,-100.00,North,0,18.0,21.0,95,-99.99,,,-99.99,,2013-05-30 13:11:00,
2013-05-30 07:22:00,54.0,52.0,-100.00,North,0,18.0,21.0,95,-99.99,,,-99.99,,2013-05-30 13:22:00,
2013-05-30 07:32:00,53.0,52.0,-100.00,North,355,19.0,21.0,95,-99.99,,,-99.99,,2013-05-30 13:32:00,
2013-05-30 07:42:00,53.0,52.0,-100.00,North,355,19.0,21.0,95,-99.99,,,-99.99,,2013-05-30 13:42:00,
2013-05-30 07:52:00,53.0,52.0,-100.00,North,355,19.0,21.0,95,-99.99,,,-99.99,,2013-05-30 13:52:00,
2013-05-30 08:01:00,53.0,52.0,-100.00,North,355,19.0,21.0,95,-99.99,,,-99.99,,2013-05-30 14:01:00,
2013-05-30 08:11:00,53.0,51.0,-100.00,North,355,16.0,19.0,95,-99.99,,,-99.99,,2013-05-30 14:11:00,
2013-05-30 08:22:00,53.0,51.0,-100.00,North,355,16.0,19.0,95,-99.99,,,-99.99,,2013-05-30 14:22:00,
2013-05-30 08:32:00,52.0,51.0,-100.00,North,350,22.0,24.0,95,-99.99,,,0.01,,2013-05-30 14:32:00,
2013-05-30 08:42:00,52.0,51.0,-100.00,North,350,22.0,24.0,95,-99.99,,,0.01,,2013-05-30 14:42:00,
2013-05-30 08:52:00,52.0,51.0,-100.00,North,0,21.0,25.0,95,-99.99,,,0.01,,2013-05-30 14:52:00,
2013-05-30 09:01:00,52.0,51.0,-100.00,North,0,21.0,25.0,95,-99.99,,,0.01,,2013-05-30 15:01:00,
2013-05-30 09:11:00,52.0,50.0,-100.00,North,350,23.0,26.0,95,-99.99,,,0.02,,2013-05-30 15:11:00,
2013-05-30 09:22:00,52.0,50.0,-100.00,North,350,23.0,26.0,95,-99.99,,,0.02,,2013-05-30 15:22:00,
2013-05-30 09:33:00,52.0,50.0,-100.00,North,355,22.0,25.0,95,-99.99,,,0.02,,2013-05-30 15:33:00,
2013-05-30 09:42:00,52.0,50.0,-100.00,North,355,22.0,25.0,95,-99.99,,,0.02,,2013-05-30 15:42:00,
2013-05-30 09:52:00,51.0,50.0,-100.00,North,355,21.0,23.0,95,-99.99,,,0.02,,2013-05-30 15:52:00,
2013-05-30 10:03:00,51.0,50.0,-100.00,North,355,21.0,23.0,95,-99.99,,,0.02,,2013-05-30 16:03:00,
2013-05-30 10:12:00,51.0,50.0,-100.00,North,350,20.0,22.0,95,-99.99,,,0.03,,2013-05-30 16:12:00,
2013-05-30 10:23:00,51.0,50.0,-100.00,North,350,20.0,22.0,95,-99.99,,,0.03,,2013-05-30 16:23:00,
2013-05-30 10:33:00,51.0,50.0,-100.00,NNW,345,21.0,24.0,95,-99.99,,,0.03,,2013-05-30 16:33:00,
2013-05-30 10:42:00,51.0,50.0,-100.00,NNW,345,21.0,24.0,95,-99.99,,,0.03,,2013-05-30 16:42:00,
2013-05-30 10:52:00,51.0,50.0,-100.00,North,0,23.0,27.0,95,-99.99,,,0.03,,2013-05-30 16:52:00,
2013-05-30 11:02:00,51.0,50.0,-100.00,North,0,23.0,27.0,95,-99.99,,,0.03,,2013-05-30 17:02:00,
2013-05-30 11:12:00,52.0,50.0,-100.00,North,350,19.0,23.0,95,-99.99,,,0.03,,2013-05-30 17:12:00,
2013-05-30 11:22:00,52.0,50.0,-100.00,North,350,19.0,23.0,95,-99.99,,,0.03,,2013-05-30 17:22:00,
2013-05-30 11:32:00,51.0,50.0,-100.00,North,350,21.0,23.0,95,-99.99,,,0.04,,2013-05-30 17:32:00,
2013-05-30 11:42:00,51.0,50.0,-100.00,North,350,21.0,23.0,95,-99.99,,,0.04,,2013-05-30 17:42:00,
2013-05-30 11:52:00,52.0,51.0,-100.00,North,355,19.0,22.0,95,-99.99,,,0.04,,2013-05-30 17:52:00,
2013-05-30 12:02:00,52.0,51.0,-100.00,North,355,19.0,22.0,95,-99.99,,,0.04,,2013-05-30 18:02:00,
2013-05-30 12:11:00,52.0,51.0,-100.00,NNW,345,19.0,22.0,95,-99.99,,,0.04,,2013-05-30 18:11:00,
2013-05-30 12:22:00,52.0,51.0,-100.00,NNW,345,19.0,22.0,95,-99.99,,,0.04,,2013-05-30 18:22:00,
2013-05-30 12:32:00,52.0,51.0,-100.00,North,350,21.0,22.0,95,-99.99,,,0.04,,2013-05-30 18:32:00,
2013-05-30 12:42:00,52.0,51.0,-100.00,North,350,21.0,22.0,95,-99.99,,,0.04,,2013-05-30 18:42:00,
2013-05-30 12:51:00,52.0,51.0,-100.00,North,350,19.0,22.0,95,-99.99,,,0.04,,2013-05-30 18:51:00,
2013-05-30 13:01:00,52.0,51.0,-100.00,North,350,19.0,22.0,95,-99.99,,,0.04,,2013-05-30 19:01:00,
2013-05-30 13:12:00,52.0,51.0,-100.00,NNW,340,19.0,22.0,95,-99.99,,,0.05,,2013-05-30 19:12:00,
2013-05-30 13:23:00,52.0,51.0,-100.00,NNW,340,19.0,22.0,95,-99.99,,,0.05,,2013-05-30 19:23:00,
2013-05-30 13:32:00,52.0,51.0,-100.00,NNW,345,19.0,25.0,95,-99.99,,,0.05,,2013-05-30 19:32:00,
2013-05-30 13:42:00,52.0,51.0,-100.00,NNW,345,19.0,25.0,95,-99.99,,,0.05,,2013-05-30 19:42:00,
2013-05-30 13:52:00,53.0,51.0,-100.00,NNW,335,17.0,21.0,95,-99.99,,,0.05,,2013-05-30 19:52:00,
2013-05-30 14:01:00,53.0,51.0,-100.00,NNW,335,17.0,21.0,95,-99.99,,,0.05,,2013-05-30 20:01:00,
2013-05-30 14:11:00,52.0,51.0,-100.00,NNW,335,22.0,26.0,95,-99.99,,,0.06,,2013-05-30 20:11:00,
2013-05-30 14:22:00,52.0,51.0,-100.00,NNW,335,22.0,26.0,95,-99.99,,,0.06,,2013-05-30 20:22:00,
2013-05-30 14:33:00,52.0,51.0,-100.00,NNW,330,17.0,19.0,95,-99.99,,,0.06,,2013-05-30 20:33:00,
2013-05-30 14:42:00,52.0,51.0,-100.00,NNW,330,17.0,19.0,95,-99.99,,,0.06,,2013-05-30 20:42:00,
2013-05-30 14:52:00,52.0,51.0,-100.00,NNW,335,21.0,24.0,95,-99.99,,,0.06,,2013-05-30 20:52:00,
2013-05-30 15:01:00,52.0,51.0,-100.00,NNW,335,19.0,22.0,95,-99.99,,,0.07,,2013-05-30 21:01:00,
2013-05-30 15:11:00,52.0,51.0,-100.00,NNW,335,19.0,22.0,95,-99.99,,,0.07,,2013-05-30 21:11:00,
2013-05-30 15:22:00,52.0,51.0,-100.00,NNW,335,19.0,22.0,95,-99.99,,,0.07,,2013-05-30 21:22:00,
2013-05-30 15:33:00,52.0,51.0,-100.00,NNW,335,20.0,23.0,95,-99.99,,,0.07,,2013-05-30 21:33:00,
2013-05-30 15:42:00,52.0,51.0,-100.00,NNW,335,20.0,23.0,95,-99.99,,,0.07,,2013-05-30 21:42:00,
2013-05-30 15:53:00,52.0,51.0,-100.00,NNW,335,24.0,30.0,95,-99.99,,,0.07,,2013-05-30 21:53:00,
2013-05-30 16:02:00,52.0,51.0,-100.00,NNW,335,24.0,30.0,95,-99.99,,,0.07,,2013-05-30 22:02:00,
2013-05-30 16:12:00,52.0,51.0,-100.00,NNW,330,22.0,24.0,95,-99.99,,,0.07,,2013-05-30 22:12:00,
2013-05-30 16:23:00,52.0,51.0,-100.00,NNW,330,22.0,24.0,95,-99.99,,,0.07,,2013-05-30 22:23:00,
2013-05-30 16:33:00,52.0,51.0,-100.00,NNW,330,21.0,25.0,95,-99.99,,,0.07,,2013-05-30 22:33:00,
2013-05-30 16:42:00,52.0,51.0,-100.00,NNW,330,21.0,25.0,95,-99.99,,,0.07,,2013-05-30 22:42:00,
2013-05-30 16:52:00,52.0,51.0,-100.00,NW,325,27.0,30.0,95,-99.99,,,0.08,,2013-05-30 22:52:00,
2013-05-30 17:02:00,52.0,51.0,-100.00,NW,325,27.0,30.0,95,-99.99,,,0.08,,2013-05-30 23:02:00,
2013-05-30 17:11:00,52.0,50.0,-100.00,NNW,335,21.0,24.0,95,-99.99,,,0.08,,2013-05-30 23:11:00,
2013-05-30 17:22:00,52.0,50.0,-100.00,NNW,335,21.0,24.0,95,-99.99,,,0.08,,2013-05-30 23:22:00,
2013-05-30 17:32:00,52.0,50.0,-100.00,NNW,340,22.0,26.0,95,-99.99,,,0.08,,2013-05-30 23:32:00,
2013-05-30 17:41:00,52.0,50.0,-100.00,NNW,340,22.0,26.0,95,-99.99,,,0.08,,2013-05-30 23:41:00,
2013-05-30 17:52:00,51.0,50.0,-100.00,NNW,330,27.0,32.0,95,-99.99,,,0.08,,2013-05-30 23:52:00,
2013-05-30 18:01:00,51.0,49.0,-100.00,NNW,330,28.0,31.0,95,-99.99,,,0.09,,2013-05-31 00:01:00,
2013-05-30 18:11:00,51.0,49.0,-100.00,NNW,330,28.0,31.0,95,-99.99,,,0.09,,2013-05-31 00:11:00,
2013-05-30 18:22:00,51.0,49.0,-100.00,NNW,330,23.0,26.0,95,-99.99,,,0.00,,2013-05-31 00:22:00,
2013-05-30 18:32:00,51.0,49.0,-100.00,NNW,330,23.0,26.0,95,-99.99,,,0.00,,2013-05-31 00:32:00,
2013-05-30 18:42:00,51.0,49.0,-100.00,NNW,330,23.0,26.0,95,-99.99,,,0.00,,2013-05-31 00:42:00,
2013-05-30 18:52:00,51.0,50.0,-100.00,NW,325,21.0,25.0,95,-99.99,,,0.00,,2013-05-31 00:52:00,
2013-05-30 19:01:00,51.0,50.0,-100.00,NW,325,21.0,25.0,95,-99.99,,,0.00,,2013-05-31 01:01:00,
2013-05-30 19:12:00,50.0,49.0,-100.00,NW,325,21.0,23.0,95,-99.99,,,0.01,,2013-05-31 01:12:00,
2013-05-30 19:21:00,50.0,49.0,-100.00,NW,325,21.0,23.0,95,-99.99,,,0.01,,2013-05-31 01:21:00,
2013-05-30 19:32:00,50.0,49.0,-100.00,NW,320,19.0,23.0,95,-99.99,,,0.01,,2013-05-31 01:32:00,
2013-05-30 19:42:00,50.0,49.0,-100.00,NW,320,19.0,23.0,95,-99.99,,,0.01,,2013-05-31 01:42:00,
2013-05-30 19:52:00,50.0,48.0,-100.00,NW,325,19.0,22.0,95,-99.99,,,0.01,,2013-05-31 01:52:00,
2013-05-30 20:02:00,50.0,48.0,-100.00,NW,325,19.0,22.0,95,-99.99,,,0.01,,2013-05-31 02:02:00,
2013-05-30 20:11:00,50.0,48.0,-100.00,WNW,300,16.0,17.0,95,-99.99,,,0.02,,2013-05-31 02:11:00,
2013-05-30 20:22:00,50.0,48.0,-100.00,WNW,300,16.0,17.0,95,-99.99,,,0.02,,2013-05-31 02:22:00,
2013-05-30 20:32:00,50.0,48.0,-100.00,NW,305,16.0,19.0,95,-99.99,,,0.02,,2013-05-31 02:32:00,
2013-05-30 20:41:00,50.0,48.0,-100.00,NW,305,16.0,19.0,95,-99.99,,,0.02,,2013-05-31 02:41:00,
2013-05-30 20:51:00,49.0,48.0,-100.00,NW,305,15.0,17.0,95,-99.99,,,0.02,,2013-05-31 02:51:00,
2013-05-30 21:01:00,49.0,48.0,-100.00,NW,305,15.0,17.0,95,-99.99,,,0.02,,2013-05-31 03:01:00,
2013-05-30 21:11:00,50.0,48.0,-100.00,NW,315,14.0,16.0,95,-99.99,,,0.00,,2013-05-31 03:11:00,
2013-05-30 21:21:00,50.0,48.0,-100.00,NW,315,14.0,16.0,95,-99.99,,,0.00,,2013-05-31 03:21:00,
2013-05-30 21:33:00,49.0,48.0,-100.00,NW,310,17.0,22.0,95,-99.99,,,0.00,,2013-05-31 03:33:00,
2013-05-30 21:43:00,49.0,48.0,-100.00,NW,310,17.0,22.0,95,-99.99,,,0.00,,2013-05-31 03:43:00,
2013-05-30 21:53:00,49.0,48.0,-100.00,NW,310,19.0,21.0,95,-99.99,,,0.00,,2013-05-31 03:53:00,
2013-05-30 22:02:00,49.0,48.0,-100.00,NW,310,19.0,21.0,95,-99.99,,,0.00,,2013-05-31 04:02:00,
2013-05-30 22:12:00,49.0,48.0,-100.00,WNW,300,16.0,19.0,95,-99.99,,,0.00,,2013-05-31 04:12:00,
2013-05-30 22:22:00,49.0,48.0,-100.00,WNW,300,16.0,19.0,95,-99.99,,,0.00,,2013-05-31 04:22:00,
2013-05-30 22:33:00,50.0,48.0,-100.00,WNW,290,15.0,17.0,95,-99.99,,,0.00,,2013-05-31 04:33:00,
2013-05-30 22:42:00,50.0,48.0,-100.00,WNW,290,15.0,17.0,95,-99.99,,,0.00,,2013-05-31 04:42:00,
2013-05-30 22:53:00,50.0,48.0,-100.00,WNW,290,15.0,17.0,95,-99.99,,,0.00,,2013-05-31 04:53:00,
2013-05-30 23:12:00,50.0,48.0,-100.00,WNW,285,16.0,19.0,95,-99.99,,,0.00,,2013-05-31 05:12:00,
2013-05-30 23:22:00,50.0,48.0,-100.00,WNW,285,16.0,19.0,95,-99.99,,,0.00,,2013-05-31 05:22:00,
2013-05-30 23:32:00,49.0,48.0,-100.00,West,280,16.0,17.0,95,-99.99,,,0.00,,2013-05-31 05:32:00,
2013-05-30 23:42:00,49.0,48.0,-100.00,West,280,16.0,17.0,95,-99.99,,,0.00,,2013-05-31 05:42:00,
2013-05-30 23:52:00,49.0,48.0,-100.00,West,280,16.0,17.0,95,-99.99,,,0.00,,2013-05-31 05:52:00,